PWSweather.com
Personal Weather Stations
Station Observations
KILMORRI1
Goose Lake, Morris, IL 60450

Goose LakeMorris, IL 60450

Lat: 41.34, Lon: -88.3

Elevation: 523

Station Type:

www.gooselakeweather.com

High Low Average
Temperature 45.6°F7.6°C 30.7°F-0.7°C 39.6°F4.2°C
Dew Point 40.0°F4.4°C 27.3°F-2.6°C 35.1°F1.7°C
Winds 11.5 mph 18.5 kmh Calm Calm 5.0 mph SW8.0 kmh SW
Wind Gusts 19.6 mph31.5 kmh -- 7.0 mph11.3 kmh
Humidity 92% 63% 84%
Pressure 30.27 in1025.1 mb 29.68 in1005.1 mb -
Precipitation 0.56 in14.2 mm - -
Hour Temp Dew Point Humidity Winds Wind Gusts Pressure Precip Precip Rate Daily Precip Total
12:00 AM 40.1°F4.5°C 37.7°F3.2°C 91% 2.3 mph NNE3.7 kmh NNE 3.5 mph5.6 kmh 29.79 in1008.8 mb - 0.00 in0.0 mm 0.00 in0.0 mm
12:10 AM 40.1°F4.5°C 37.6°F3.1°C 91% 2.3 mph NE3.7 kmh NE 3.5 mph5.6 kmh 29.79 in1008.8 mb - 0.00 in0.0 mm 0.00 in0.0 mm
12:20 AM 39.8°F4.3°C 37.4°F3.0°C 91% 3.5 mph NE5.6 kmh NE 4.6 mph7.4 kmh 29.78 in1008.5 mb - 0.00 in0.0 mm 0.00 in0.0 mm
12:30 AM 39.8°F4.3°C 37.4°F3.0°C 91% 2.3 mph NE3.7 kmh NE 3.5 mph5.6 kmh 29.79 in1008.8 mb - 0.00 in0.0 mm 0.00 in0.0 mm
12:40 AM 39.8°F4.3°C 37.4°F3.0°C 91% 2.3 mph NE3.7 kmh NE 3.5 mph5.6 kmh 29.79 in1008.8 mb - 0.01 in0.3 mm 0.01 in0.3 mm
12:50 AM 39.9°F4.4°C 37.5°F3.1°C 91% 3.5 mph NE5.6 kmh NE 4.6 mph7.4 kmh 29.79 in1008.8 mb - 0.00 in0.0 mm 0.01 in0.3 mm
01:00 AM 40.0°F4.4°C 37.6°F3.1°C 91% 5.8 mph NE9.3 kmh NE 6.9 mph11.1 kmh 29.77 in1008.1 mb - 0.00 in0.0 mm 0.01 in0.3 mm
01:10 AM 40.0°F4.4°C 37.9°F3.3°C 92% 3.5 mph NE5.6 kmh NE 4.6 mph7.4 kmh 29.75 in1007.5 mb - 0.00 in0.0 mm 0.01 in0.3 mm
01:20 AM 40.2°F4.6°C 38.1°F3.4°C 92% 2.3 mph ENE3.7 kmh ENE 3.5 mph5.6 kmh 29.77 in1008.1 mb - 0.00 in0.0 mm 0.01 in0.3 mm
01:30 AM 40.8°F4.9°C 38.6°F3.7°C 92% 2.3 mph ENE3.7 kmh ENE 6.9 mph11.1 kmh 29.77 in1008.1 mb - 0.00 in0.0 mm 0.01 in0.3 mm
01:40 AM 41.3°F5.2°C 39.2°F4.0°C 92% 4.6 mph ENE7.4 kmh ENE 4.6 mph7.4 kmh 29.77 in1008.1 mb - 0.00 in0.0 mm 0.01 in0.3 mm
01:50 AM 41.4°F5.2°C 39.3°F4.1°C 92% 5.8 mph ENE9.3 kmh ENE 8.1 mph13.0 kmh 29.75 in1007.5 mb - 0.00 in0.0 mm 0.01 in0.3 mm
02:00 AM 41.4°F5.2°C 39.3°F4.1°C 92% 5.8 mph E9.3 kmh E 6.9 mph11.1 kmh 29.72 in1006.4 mb - 0.00 in0.0 mm 0.01 in0.3 mm
02:10 AM 41.6°F5.3°C 39.4°F4.1°C 92% 3.5 mph NE5.6 kmh NE 8.1 mph13.0 kmh 29.73 in1006.8 mb - 0.00 in0.0 mm 0.01 in0.3 mm
02:20 AM 41.7°F5.4°C 39.5°F4.2°C 92% 3.5 mph NE5.6 kmh NE 5.8 mph9.3 kmh 29.72 in1006.4 mb - 0.00 in0.0 mm 0.01 in0.3 mm
02:30 AM 41.4°F5.2°C 39.3°F4.1°C 92% 4.6 mph NE7.4 kmh NE 4.6 mph7.4 kmh 29.69 in1005.4 mb - 0.00 in0.0 mm 0.01 in0.3 mm
02:40 AM 41.6°F5.3°C 39.4°F4.1°C 92% 3.5 mph NE5.6 kmh NE 6.9 mph11.1 kmh 29.69 in1005.4 mb - 0.00 in0.0 mm 0.01 in0.3 mm
02:50 AM 41.7°F5.4°C 39.5°F4.2°C 92% 3.5 mph ENE5.6 kmh ENE 3.5 mph5.6 kmh 29.70 in1005.8 mb - 0.00 in0.0 mm 0.01 in0.3 mm
03:00 AM 42.0°F5.6°C 39.8°F4.3°C 92% 2.3 mph NE3.7 kmh NE 4.6 mph7.4 kmh 29.70 in1005.8 mb - 0.00 in0.0 mm 0.01 in0.3 mm
03:10 AM 42.1°F5.6°C 40.0°F4.4°C 92% 2.3 mph N3.7 kmh N 3.5 mph5.6 kmh 29.71 in1006.1 mb - 0.00 in0.0 mm 0.01 in0.3 mm
03:20 AM 41.8°F5.4°C 39.3°F4.1°C 91% 2.3 mph NE3.7 kmh NE 5.8 mph9.3 kmh 29.70 in1005.8 mb - 0.00 in0.0 mm 0.01 in0.3 mm
03:30 AM 41.5°F5.3°C 39.1°F3.9°C 91% 3.5 mph NE5.6 kmh NE 3.5 mph5.6 kmh 29.71 in1006.1 mb - 0.00 in0.0 mm 0.01 in0.3 mm
03:40 AM 41.4°F5.2°C 39.0°F3.9°C 91% 4.6 mph NE7.4 kmh NE 4.6 mph7.4 kmh 29.69 in1005.4 mb - 0.00 in0.0 mm 0.01 in0.3 mm
03:50 AM 41.3°F5.2°C 38.8°F3.8°C 91% 4.6 mph NE7.4 kmh NE 6.9 mph11.1 kmh 29.68 in1005.1 mb - 0.00 in0.0 mm 0.01 in0.3 mm
04:00 AM 41.3°F5.2°C 38.9°F3.8°C 91% 3.5 mph NNE5.6 kmh NNE 4.6 mph7.4 kmh 29.69 in1005.4 mb - 0.00 in0.0 mm 0.01 in0.3 mm
04:10 AM 41.4°F5.2°C 38.7°F3.7°C 90% 3.5 mph NNW5.6 kmh NNW 5.8 mph9.3 kmh 29.71 in1006.1 mb - 0.00 in0.0 mm 0.01 in0.3 mm
04:20 AM 41.3°F5.2°C 38.6°F3.7°C 90% 2.3 mph NNW3.7 kmh NNW 6.9 mph11.1 kmh 29.72 in1006.4 mb - 0.00 in0.0 mm 0.01 in0.3 mm
04:30 AM 41.3°F5.2°C 38.6°F3.7°C 90% 3.5 mph N5.6 kmh N 4.6 mph7.4 kmh 29.72 in1006.4 mb - 0.00 in0.0 mm 0.01 in0.3 mm
04:40 AM 41.2°F5.1°C 38.5°F3.6°C 90% 3.5 mph NNE5.6 kmh NNE 4.6 mph7.4 kmh 29.72 in1006.4 mb - 0.03 in0.8 mm 0.04 in1.0 mm
04:50 AM 41.0°F5.0°C 38.6°F3.7°C 91% 3.5 mph NNE5.6 kmh NNE 5.8 mph9.3 kmh 29.70 in1005.8 mb - 0.03 in0.8 mm 0.06 in1.5 mm
05:00 AM 40.7°F4.8°C 38.3°F3.5°C 91% 4.6 mph N7.4 kmh N 6.9 mph11.1 kmh 29.71 in1006.1 mb - 0.01 in0.3 mm 0.07 in1.8 mm
05:10 AM 40.6°F4.8°C 38.2°F3.4°C 91% 3.5 mph N5.6 kmh N 8.1 mph13.0 kmh 29.71 in1006.1 mb - 0.01 in0.3 mm 0.08 in2.0 mm
05:20 AM 40.5°F4.7°C 38.1°F3.4°C 91% 6.9 mph N11.1 kmh N 11.5 mph18.5 kmh 29.72 in1006.4 mb - 0.01 in0.3 mm 0.08 in2.0 mm
05:30 AM 40.6°F4.8°C 38.2°F3.4°C 91% 2.3 mph N3.7 kmh N 4.6 mph7.4 kmh 29.71 in1006.1 mb - 0.01 in0.3 mm 0.09 in2.3 mm
05:40 AM 40.5°F4.7°C 38.4°F3.6°C 92% 5.8 mph NNW9.3 kmh NNW 9.2 mph14.8 kmh 29.73 in1006.8 mb - 0.01 in0.3 mm 0.10 in2.5 mm
05:50 AM 40.5°F4.7°C 38.4°F3.6°C 92% 4.6 mph NNW7.4 kmh NNW 9.2 mph14.8 kmh 29.74 in1007.1 mb - 0.01 in0.3 mm 0.11 in2.8 mm
06:00 AM 40.3°F4.6°C 38.1°F3.4°C 92% 8.1 mph N13.0 kmh N 12.7 mph20.4 kmh 29.72 in1006.4 mb - 0.10 in2.5 mm 0.21 in5.3 mm
06:10 AM 40.1°F4.5°C 38.0°F3.3°C 92% 6.9 mph NNW11.1 kmh NNW 10.4 mph16.7 kmh 29.73 in1006.8 mb - 0.04 in1.0 mm 0.24 in6.1 mm
06:20 AM 40.0°F4.4°C 37.9°F3.3°C 92% 4.6 mph N7.4 kmh N 10.4 mph16.7 kmh 29.72 in1006.4 mb - 0.02 in0.5 mm 0.26 in6.6 mm
06:30 AM 39.8°F4.3°C 37.7°F3.2°C 92% 6.9 mph N11.1 kmh N 15.0 mph24.1 kmh 29.73 in1006.8 mb - 0.06 in1.5 mm 0.32 in8.1 mm
06:40 AM 39.8°F4.3°C 37.7°F3.2°C 92% 4.6 mph N7.4 kmh N 8.1 mph13.0 kmh 29.74 in1007.1 mb - 0.07 in1.8 mm 0.37 in9.4 mm
06:50 AM 39.7°F4.3°C 37.3°F2.9°C 91% 9.2 mph NE14.8 kmh NE 15.0 mph24.1 kmh 29.73 in1006.8 mb - 0.02 in0.5 mm 0.38 in9.7 mm
07:00 AM 39.6°F4.2°C 37.2°F2.9°C 91% 8.1 mph NE13.0 kmh NE 17.3 mph27.8 kmh 29.72 in1006.4 mb - 0.01 in0.3 mm 0.39 in9.9 mm
07:10 AM 39.5°F4.2°C 37.1°F2.8°C 91% 11.5 mph N18.5 kmh N 19.6 mph31.5 kmh 29.73 in1006.8 mb - 0.01 in0.3 mm 0.40 in10.2 mm
07:20 AM 39.5°F4.2°C 37.1°F2.8°C 91% 8.1 mph NNE13.0 kmh NNE 15.0 mph24.1 kmh 29.73 in1006.8 mb - 0.01 in0.3 mm 0.41 in10.4 mm
07:30 AM 39.4°F4.1°C 36.7°F2.6°C 90% 10.4 mph NE16.7 kmh NE 15.0 mph24.1 kmh 29.74 in1007.1 mb - 0.01 in0.3 mm 0.42 in10.7 mm
07:40 AM 39.3°F4.1°C 36.6°F2.6°C 90% 8.1 mph NNE13.0 kmh NNE 11.5 mph18.5 kmh 29.75 in1007.5 mb - 0.02 in0.5 mm 0.44 in11.2 mm
07:50 AM 39.2°F4.0°C 36.5°F2.5°C 90% 8.1 mph N13.0 kmh N 10.4 mph16.7 kmh 29.75 in1007.5 mb - 0.00 in0.0 mm 0.44 in11.2 mm
08:00 AM 39.2°F4.0°C 36.5°F2.5°C 90% 6.9 mph N11.1 kmh N 10.4 mph16.7 kmh 29.76 in1007.8 mb - 0.00 in0.0 mm 0.44 in11.2 mm
08:10 AM 39.1°F3.9°C 36.4°F2.4°C 90% 6.9 mph NNE11.1 kmh NNE 9.2 mph14.8 kmh 29.77 in1008.1 mb - 0.02 in0.5 mm 0.46 in11.7 mm
08:20 AM 39.0°F3.9°C 36.3°F2.4°C 90% 5.8 mph NNE9.3 kmh NNE 9.2 mph14.8 kmh 29.78 in1008.5 mb - 0.01 in0.3 mm 0.46 in11.7 mm
08:30 AM 39.0°F3.9°C 36.3°F2.4°C 90% 4.6 mph N7.4 kmh N 6.9 mph11.1 kmh 29.79 in1008.8 mb - 0.02 in0.5 mm 0.48 in12.2 mm
08:40 AM 38.9°F3.8°C 36.2°F2.3°C 90% 4.6 mph NNE7.4 kmh NNE 11.5 mph18.5 kmh 29.78 in1008.5 mb - 0.03 in0.8 mm 0.51 in13.0 mm
08:50 AM 38.9°F3.8°C 36.2°F2.3°C 90% 4.6 mph NE7.4 kmh NE 9.2 mph14.8 kmh 29.78 in1008.5 mb - 0.03 in0.8 mm 0.53 in13.5 mm
09:00 AM 39.0°F3.9°C 36.6°F2.6°C 91% 6.9 mph NE11.1 kmh NE 11.5 mph18.5 kmh 29.78 in1008.5 mb - 0.01 in0.3 mm 0.54 in13.7 mm
09:10 AM 39.1°F3.9°C 36.7°F2.6°C 91% 4.6 mph N7.4 kmh N 8.1 mph13.0 kmh 29.79 in1008.8 mb - 0.01 in0.3 mm 0.55 in14.0 mm
09:20 AM 39.1°F3.9°C 36.7°F2.6°C 91% 5.8 mph N9.3 kmh N 9.2 mph14.8 kmh 29.80 in1009.1 mb - 0.00 in0.0 mm 0.55 in14.0 mm
09:30 AM 39.1°F3.9°C 36.5°F2.5°C 90% 6.9 mph N11.1 kmh N 11.5 mph18.5 kmh 29.82 in1009.8 mb - 0.00 in0.0 mm 0.55 in14.0 mm
09:40 AM 39.1°F3.9°C 36.4°F2.4°C 90% 3.5 mph N5.6 kmh N 5.8 mph9.3 kmh 29.82 in1009.8 mb - 0.00 in0.0 mm 0.55 in14.0 mm
09:50 AM 39.1°F3.9°C 36.4°F2.4°C 90% 8.1 mph NNE13.0 kmh NNE 11.5 mph18.5 kmh 29.81 in1009.5 mb - 0.00 in0.0 mm 0.55 in14.0 mm
10:00 AM 39.3°F4.1°C 36.6°F2.6°C 90% 5.8 mph NNE9.3 kmh NNE 8.1 mph13.0 kmh 29.81 in1009.5 mb - 0.01 in0.3 mm 0.56 in14.2 mm
10:10 AM 39.3°F4.1°C 36.7°F2.6°C 90% 4.6 mph N7.4 kmh N 4.6 mph7.4 kmh 29.82 in1009.8 mb - 0.00 in0.0 mm 0.56 in14.2 mm
10:20 AM 39.4°F4.1°C 36.4°F2.4°C 89% 4.6 mph NNW7.4 kmh NNW 8.1 mph13.0 kmh 29.84 in1010.5 mb - 0.00 in0.0 mm 0.56 in14.2 mm
10:30 AM 39.2°F4.0°C 36.2°F2.3°C 89% 9.2 mph NW14.8 kmh NW 11.5 mph18.5 kmh 29.86 in1011.2 mb - 0.00 in0.0 mm 0.56 in14.2 mm
10:40 AM 38.8°F3.8°C 35.8°F2.1°C 89% 6.9 mph NNW11.1 kmh NNW 9.2 mph14.8 kmh 29.87 in1011.5 mb - 0.00 in0.0 mm 0.56 in14.2 mm
10:50 AM 38.9°F3.8°C 36.0°F2.2°C 89% 6.9 mph N11.1 kmh N 10.4 mph16.7 kmh 29.87 in1011.5 mb - 0.00 in0.0 mm 0.56 in14.2 mm
11:00 AM 39.2°F4.0°C 36.0°F2.2°C 88% 6.9 mph NNW11.1 kmh NNW 13.8 mph22.2 kmh 29.88 in1011.9 mb - 0.00 in0.0 mm 0.56 in14.2 mm
11:10 AM 39.3°F4.1°C 36.1°F2.3°C 88% 5.8 mph N9.3 kmh N 10.4 mph16.7 kmh 29.88 in1011.9 mb - 0.00 in0.0 mm 0.56 in14.2 mm
11:20 AM 39.6°F4.2°C 36.0°F2.2°C 87% 5.8 mph N9.3 kmh N 11.5 mph18.5 kmh 29.88 in1011.9 mb - 0.00 in0.0 mm 0.56 in14.2 mm
11:30 AM 40.4°F4.7°C 36.8°F2.7°C 87% 6.9 mph NNW11.1 kmh NNW 6.9 mph11.1 kmh 29.88 in1011.9 mb - 0.00 in0.0 mm 0.56 in14.2 mm
11:40 AM 40.8°F4.9°C 36.9°F2.7°C 86% 6.9 mph N11.1 kmh N 10.4 mph16.7 kmh 29.88 in1011.9 mb - 0.00 in0.0 mm 0.56 in14.2 mm
11:50 AM 40.5°F4.7°C 36.0°F2.2°C 84% 5.8 mph NNW9.3 kmh NNW 12.7 mph20.4 kmh 29.88 in1011.9 mb - 0.00 in0.0 mm 0.56 in14.2 mm
12:00 PM 40.9°F4.9°C 36.4°F2.4°C 84% 6.9 mph NNW11.1 kmh NNW 11.5 mph18.5 kmh 29.89 in1012.2 mb - 0.00 in0.0 mm 0.56 in14.2 mm
12:10 PM 40.9°F4.9°C 35.9°F2.2°C 82% 6.9 mph N11.1 kmh N 9.2 mph14.8 kmh 29.89 in1012.2 mb - 0.00 in0.0 mm 0.56 in14.2 mm
12:20 PM 41.1°F5.1°C 35.8°F2.1°C 81% 6.9 mph NNW11.1 kmh NNW 9.2 mph14.8 kmh 29.90 in1012.5 mb - 0.00 in0.0 mm 0.56 in14.2 mm
12:30 PM 41.1°F5.1°C 36.0°F2.2°C 82% 5.8 mph N9.3 kmh N 10.4 mph16.7 kmh 29.90 in1012.5 mb - 0.00 in0.0 mm 0.56 in14.2 mm
12:40 PM 41.2°F5.1°C 36.2°F2.3°C 82% 4.6 mph NNW7.4 kmh NNW 5.8 mph9.3 kmh 29.91 in1012.9 mb - 0.00 in0.0 mm 0.56 in14.2 mm
12:50 PM 41.1°F5.1°C 36.0°F2.2°C 82% 8.1 mph NW13.0 kmh NW 11.5 mph18.5 kmh 29.92 in1013.2 mb - 0.00 in0.0 mm 0.56 in14.2 mm
01:00 PM 40.8°F4.9°C 35.4°F1.9°C 81% 5.8 mph N9.3 kmh N 11.5 mph18.5 kmh 29.93 in1013.5 mb - 0.00 in0.0 mm 0.56 in14.2 mm
01:10 PM 41.0°F5.0°C 35.3°F1.8°C 80% 6.9 mph N11.1 kmh N 12.7 mph20.4 kmh 29.93 in1013.5 mb - 0.00 in0.0 mm 0.56 in14.2 mm
01:20 PM 41.3°F5.2°C 35.3°F1.8°C 79% 6.9 mph NNW11.1 kmh NNW 9.2 mph14.8 kmh 29.94 in1013.9 mb - 0.00 in0.0 mm 0.56 in14.2 mm
01:30 PM 41.5°F5.3°C 35.8°F2.1°C 80% 5.8 mph NW9.3 kmh NW 8.1 mph13.0 kmh 29.93 in1013.5 mb - 0.00 in0.0 mm 0.56 in14.2 mm
01:40 PM 42.4°F5.8°C 36.6°F2.6°C 80% 4.6 mph NNW7.4 kmh NNW 4.6 mph7.4 kmh 29.94 in1013.9 mb - 0.00 in0.0 mm 0.56 in14.2 mm
01:50 PM 42.9°F6.1°C 36.5°F2.5°C 78% 4.6 mph NNW7.4 kmh NNW 5.8 mph9.3 kmh 29.94 in1013.9 mb - 0.00 in0.0 mm 0.56 in14.2 mm
02:00 PM 43.9°F6.6°C 37.1°F2.8°C 77% 3.5 mph N5.6 kmh N 4.6 mph7.4 kmh 29.94 in1013.9 mb - 0.00 in0.0 mm 0.56 in14.2 mm
02:10 PM 44.5°F6.9°C 37.4°F3.0°C 76% 4.6 mph N7.4 kmh N 4.6 mph7.4 kmh 29.95 in1014.2 mb - 0.00 in0.0 mm 0.56 in14.2 mm
02:20 PM 45.0°F7.2°C 36.8°F2.7°C 73% 4.6 mph NNW7.4 kmh NNW 6.9 mph11.1 kmh 29.96 in1014.6 mb - 0.00 in0.0 mm 0.56 in14.2 mm
02:30 PM 45.5°F7.5°C 37.7°F3.2°C 74% 2.3 mph NNW3.7 kmh NNW 4.6 mph7.4 kmh 29.97 in1014.9 mb - 0.00 in0.0 mm 0.56 in14.2 mm
02:40 PM 45.4°F7.4°C 36.9°F2.7°C 72% 5.8 mph NW9.3 kmh NW 8.1 mph13.0 kmh 29.97 in1014.9 mb - 0.00 in0.0 mm 0.56 in14.2 mm
02:50 PM 45.4°F7.4°C 37.2°F2.9°C 73% 4.6 mph NW7.4 kmh NW 5.8 mph9.3 kmh 29.98 in1015.2 mb - 0.00 in0.0 mm 0.56 in14.2 mm
03:00 PM 45.3°F7.4°C 36.8°F2.7°C 72% 9.2 mph NW14.8 kmh NW 16.1 mph25.9 kmh 29.99 in1015.6 mb - 0.00 in0.0 mm 0.56 in14.2 mm
03:10 PM 45.1°F7.3°C 36.3°F2.4°C 71% 10.4 mph NW16.7 kmh NW 17.3 mph27.8 kmh 29.99 in1015.6 mb - 0.00 in0.0 mm 0.56 in14.2 mm
03:20 PM 44.7°F7.1°C 37.2°F2.9°C 75% 9.2 mph NW14.8 kmh NW 13.8 mph22.2 kmh 30.00 in1015.9 mb - 0.00 in0.0 mm 0.56 in14.2 mm
03:30 PM 44.9°F7.2°C 37.1°F2.8°C 74% 9.2 mph NW14.8 kmh NW 17.3 mph27.8 kmh 30.01 in1016.3 mb - 0.00 in0.0 mm 0.56 in14.2 mm
03:40 PM 45.6°F7.6°C 37.7°F3.2°C 74% 9.2 mph NW14.8 kmh NW 12.7 mph20.4 kmh 30.01 in1016.3 mb - 0.00 in0.0 mm 0.56 in14.2 mm
03:50 PM 45.5°F7.5°C 36.6°F2.6°C 71% 8.1 mph NW13.0 kmh NW 15.0 mph24.1 kmh 30.02 in1016.6 mb - 0.00 in0.0 mm 0.56 in14.2 mm
04:00 PM 45.0°F7.2°C 35.8°F2.1°C 70% 10.4 mph NW16.7 kmh NW 12.7 mph20.4 kmh 30.02 in1016.6 mb - 0.00 in0.0 mm 0.56 in14.2 mm
04:10 PM 44.6°F7.0°C 35.8°F2.1°C 71% 9.2 mph NW14.8 kmh NW 11.5 mph18.5 kmh 30.03 in1016.9 mb - 0.00 in0.0 mm 0.56 in14.2 mm
04:20 PM 44.5°F6.9°C 36.0°F2.2°C 72% 8.1 mph NW13.0 kmh NW 11.5 mph18.5 kmh 30.04 in1017.3 mb - 0.00 in0.0 mm 0.56 in14.2 mm
04:30 PM 44.7°F7.1°C 35.9°F2.2°C 71% 4.6 mph NNW7.4 kmh NNW 6.9 mph11.1 kmh 30.04 in1017.3 mb - 0.00 in0.0 mm 0.56 in14.2 mm
04:40 PM 44.9°F7.2°C 34.9°F1.6°C 68% 6.9 mph NNW11.1 kmh NNW 9.2 mph14.8 kmh 30.05 in1017.6 mb - 0.00 in0.0 mm 0.56 in14.2 mm
04:50 PM 44.7°F7.1°C 35.1°F1.7°C 69% 6.9 mph NNW11.1 kmh NNW 12.7 mph20.4 kmh 30.05 in1017.6 mb - 0.00 in0.0 mm 0.56 in14.2 mm
05:00 PM 44.5°F6.9°C 34.6°F1.4°C 68% 9.2 mph NW14.8 kmh NW 13.8 mph22.2 kmh 30.06 in1017.9 mb - 0.00 in0.0 mm 0.56 in14.2 mm
05:10 PM 44.3°F6.8°C 33.3°F0.7°C 65% 8.1 mph NW13.0 kmh NW 9.2 mph14.8 kmh 30.07 in1018.3 mb - 0.00 in0.0 mm 0.56 in14.2 mm
05:20 PM 43.9°F6.6°C 32.1°F0.1°C 63% 4.6 mph NW7.4 kmh NW 11.5 mph18.5 kmh 30.07 in1018.3 mb - 0.00 in0.0 mm 0.56 in14.2 mm
05:30 PM 43.4°F6.3°C 32.0°F0.0°C 64% 5.8 mph NW9.3 kmh NW 8.1 mph13.0 kmh 30.08 in1018.6 mb - 0.00 in0.0 mm 0.56 in14.2 mm
05:40 PM 42.6°F5.9°C 32.0°F0.0°C 66% 5.8 mph NW9.3 kmh NW 8.1 mph13.0 kmh 30.09 in1019.0 mb - 0.00 in0.0 mm 0.56 in14.2 mm
05:50 PM 42.0°F5.6°C 31.8°F-0.1°C 67% 3.5 mph WNW5.6 kmh WNW 5.8 mph9.3 kmh 30.09 in1019.0 mb - 0.00 in0.0 mm 0.56 in14.2 mm
06:00 PM 41.3°F5.2°C 31.5°F-0.3°C 68% 4.6 mph NW7.4 kmh NW 6.9 mph11.1 kmh 30.10 in1019.3 mb - 0.00 in0.0 mm 0.56 in14.2 mm
06:10 PM 41.1°F5.1°C 31.3°F-0.4°C 68% 3.5 mph NW5.6 kmh NW 6.9 mph11.1 kmh 30.11 in1019.6 mb - 0.00 in0.0 mm 0.56 in14.2 mm
06:20 PM 40.7°F4.8°C 31.0°F-0.6°C 68% 3.5 mph NW5.6 kmh NW 6.9 mph11.1 kmh 30.11 in1019.6 mb - 0.00 in0.0 mm 0.56 in14.2 mm
06:30 PM 40.4°F4.7°C 31.0°F-0.6°C 69% 5.8 mph NW9.3 kmh NW 9.2 mph14.8 kmh 30.12 in1020.0 mb - 0.00 in0.0 mm 0.56 in14.2 mm
06:40 PM 40.2°F4.6°C 31.2°F-0.4°C 70% 3.5 mph NW5.6 kmh NW 6.9 mph11.1 kmh 30.13 in1020.3 mb - 0.00 in0.0 mm 0.56 in14.2 mm
06:50 PM 40.0°F4.4°C 31.4°F-0.3°C 71% 4.6 mph NW7.4 kmh NW 5.8 mph9.3 kmh 30.13 in1020.3 mb - 0.00 in0.0 mm 0.56 in14.2 mm
07:00 PM 39.7°F4.3°C 31.1°F-0.5°C 71% 3.5 mph NW5.6 kmh NW 4.6 mph7.4 kmh 30.13 in1020.3 mb - 0.00 in0.0 mm 0.56 in14.2 mm
07:10 PM 39.1°F3.9°C 30.9°F-0.6°C 72% 2.3 mph NW3.7 kmh NW 4.6 mph7.4 kmh 30.14 in1020.7 mb - 0.00 in0.0 mm 0.56 in14.2 mm
07:20 PM 38.3°F3.5°C 30.4°F-0.9°C 73% 1.2 mph NW1.9 kmh NW 3.5 mph5.6 kmh 30.14 in1020.7 mb - 0.00 in0.0 mm 0.56 in14.2 mm
07:30 PM 38.0°F3.3°C 30.4°F-0.9°C 74% 2.3 mph NW3.7 kmh NW 2.3 mph3.7 kmh 30.14 in1020.7 mb - 0.00 in0.0 mm 0.56 in14.2 mm
07:40 PM 37.5°F3.1°C 30.3°F-0.9°C 75% Calm Calm 2.3 mph3.7 kmh 30.14 in1020.7 mb - 0.00 in0.0 mm 0.56 in14.2 mm
07:50 PM 36.1°F2.3°C 29.9°F-1.2°C 78% Calm Calm -- 30.15 in1021.0 mb - 0.00 in0.0 mm 0.56 in14.2 mm
08:00 PM 35.1°F1.7°C 29.8°F-1.2°C 81% 1.2 mph NW1.9 kmh NW 2.3 mph3.7 kmh 30.15 in1021.0 mb - 0.00 in0.0 mm 0.56 in14.2 mm
08:10 PM 34.4°F1.3°C 29.8°F-1.2°C 83% 1.2 mph WNW1.9 kmh WNW 1.2 mph1.9 kmh 30.16 in1021.3 mb - 0.00 in0.0 mm 0.56 in14.2 mm
08:20 PM 33.6°F0.9°C 29.2°F-1.6°C 84% 1.2 mph WNW1.9 kmh WNW 1.2 mph1.9 kmh 30.16 in1021.3 mb - 0.00 in0.0 mm 0.56 in14.2 mm
08:30 PM 33.0°F0.6°C 29.0°F-1.7°C 85% 1.2 mph WNW1.9 kmh WNW 2.3 mph3.7 kmh 30.16 in1021.3 mb - 0.00 in0.0 mm 0.56 in14.2 mm
08:40 PM 32.7°F0.4°C 29.0°F-1.7°C 86% 1.2 mph WNW1.9 kmh WNW 2.3 mph3.7 kmh 30.17 in1021.7 mb - 0.00 in0.0 mm 0.56 in14.2 mm
08:50 PM 32.3°F0.2°C 28.6°F-1.9°C 86% 1.2 mph WNW1.9 kmh WNW 2.3 mph3.7 kmh 30.17 in1021.7 mb - 0.00 in0.0 mm 0.56 in14.2 mm
09:00 PM 31.6°F-0.2°C 28.2°F-2.1°C 87% 1.2 mph WNW1.9 kmh WNW 2.3 mph3.7 kmh 30.17 in1021.7 mb - 0.00 in0.0 mm 0.56 in14.2 mm
09:10 PM 31.3°F-0.4°C 28.2°F-2.1°C 88% 1.2 mph WNW1.9 kmh WNW 2.3 mph3.7 kmh 30.18 in1022.0 mb - 0.00 in0.0 mm 0.56 in14.2 mm
09:20 PM 31.2°F-0.4°C 28.0°F-2.2°C 88% 2.3 mph WNW3.7 kmh WNW 2.3 mph3.7 kmh 30.18 in1022.0 mb - 0.00 in0.0 mm 0.56 in14.2 mm
09:30 PM 31.1°F-0.5°C 28.0°F-2.2°C 88% 2.3 mph WNW3.7 kmh WNW 3.5 mph5.6 kmh 30.18 in1022.0 mb - 0.00 in0.0 mm 0.56 in14.2 mm
09:40 PM 31.0°F-0.6°C 28.1°F-2.2°C 89% 2.3 mph WSW3.7 kmh WSW 2.3 mph3.7 kmh 30.19 in1022.4 mb - 0.00 in0.0 mm 0.56 in14.2 mm
09:50 PM 31.6°F-0.2°C 28.7°F-1.8°C 89% 2.3 mph WSW3.7 kmh WSW 2.3 mph3.7 kmh 30.19 in1022.4 mb - 0.00 in0.0 mm 0.56 in14.2 mm
10:00 PM 32.0°F0.0°C 28.5°F-1.9°C 87% 2.3 mph W3.7 kmh W 2.3 mph3.7 kmh 30.20 in1022.7 mb - 0.00 in0.0 mm 0.56 in14.2 mm
10:10 PM 32.4°F0.2°C 28.4°F-2.0°C 85% Calm Calm -- 30.20 in1022.7 mb - 0.00 in0.0 mm 0.56 in14.2 mm
10:20 PM 31.0°F-0.6°C 27.6°F-2.4°C 87% Calm Calm 1.2 mph1.9 kmh 30.21 in1023.0 mb - 0.00 in0.0 mm 0.56 in14.2 mm
10:30 PM 30.7°F-0.7°C 27.3°F-2.6°C 87% 1.2 mph W1.9 kmh W 2.3 mph3.7 kmh 30.21 in1023.0 mb - 0.00 in0.0 mm 0.56 in14.2 mm
10:40 PM 31.3°F-0.4°C 28.5°F-1.9°C 89% 1.2 mph WNW1.9 kmh WNW 2.3 mph3.7 kmh 30.23 in1023.7 mb - 0.00 in0.0 mm 0.56 in14.2 mm
10:50 PM 31.8°F-0.1°C 28.7°F-1.8°C 88% 2.3 mph WNW3.7 kmh WNW 3.5 mph5.6 kmh 30.23 in1023.7 mb - 0.00 in0.0 mm 0.56 in14.2 mm
11:00 PM 32.8°F0.4°C 28.8°F-1.8°C 85% 2.3 mph WNW3.7 kmh WNW 3.5 mph5.6 kmh 30.24 in1024.0 mb - 0.00 in0.0 mm 0.56 in14.2 mm
11:10 PM 33.0°F0.6°C 28.4°F-2.0°C 83% 1.2 mph WNW1.9 kmh WNW 1.2 mph1.9 kmh 30.24 in1024.0 mb - 0.00 in0.0 mm 0.56 in14.2 mm
11:20 PM 32.5°F0.3°C 28.2°F-2.1°C 84% 2.3 mph W3.7 kmh W 3.5 mph5.6 kmh 30.25 in1024.4 mb - 0.00 in0.0 mm 0.56 in14.2 mm
11:30 PM 33.3°F0.7°C 28.7°F-1.8°C 83% 2.3 mph WNW3.7 kmh WNW 4.6 mph7.4 kmh 30.26 in1024.7 mb - 0.00 in0.0 mm 0.56 in14.2 mm
11:40 PM 33.3°F0.7°C 28.4°F-2.0°C 82% 1.2 mph W1.9 kmh W 2.3 mph3.7 kmh 30.26 in1024.7 mb - 0.00 in0.0 mm 0.56 in14.2 mm
11:50 PM 32.8°F0.4°C 28.2°F-2.1°C 83% 2.3 mph W3.7 kmh W 3.5 mph5.6 kmh 30.27 in1025.1 mb - 0.00 in0.0 mm 0.56 in14.2 mm